Time,TemperatureF,DewpointF,PressureIn,WindDirection,WindDirectionDegrees,WindSpeedMPH,WindSpeedGustMPH,Humidity,HourlyPrecipIn,Conditions,Clouds,dailyrainin,SoftwareType,DateUTC
2013-05-24 00:01:00,59.8,53.3,30.08,SSE,158,0.4,0.4,79,0.00,,,0.00,WUHU216HW,2013-05-24 05:01:00,
2013-05-24 00:06:00,59.6,53.1,30.09,NW,315,0.1,0.4,79,0.00,,,0.00,WUHU216HW,2013-05-24 05:06:00,
2013-05-24 00:11:00,59.4,52.9,30.09,SE,135,1.2,2.0,79,0.00,,,0.00,WUHU216HW,2013-05-24 05:11:00,
2013-05-24 00:16:00,59.4,52.9,30.09,South,180,0.2,2.0,79,0.00,,,0.00,WUHU216HW,2013-05-24 05:16:00,
2013-05-24 00:21:00,59.2,53.1,30.10,ESE,113,0.0,0.4,80,0.00,,,0.00,WUHU216HW,2013-05-24 05:21:00,
2013-05-24 00:26:00,59.0,52.9,30.10,East,90,1.1,1.1,80,0.00,,,0.00,WUHU216HW,2013-05-24 05:26:00,
2013-05-24 00:31:00,58.9,52.7,30.10,ESE,113,0.0,1.1,80,0.00,,,0.00,WUHU216HW,2013-05-24 05:31:00,
2013-05-24 00:36:00,58.7,52.6,30.10,ESE,113,0.0,0.4,80,0.00,,,0.00,WUHU216HW,2013-05-24 05:36:00,
2013-05-24 00:41:00,58.7,52.6,30.10,ESE,113,0.0,0.0,80,0.00,,,0.00,WUHU216HW,2013-05-24 05:41:00,
2013-05-24 00:46:00,58.3,52.2,30.10,ESE,113,0.0,0.0,80,0.00,,,0.00,WUHU216HW,2013-05-24 05:46:00,
2013-05-24 00:51:00,58.3,52.6,30.10,ESE,113,0.0,0.0,81,0.00,,,0.00,WUHU216HW,2013-05-24 05:51:00,
2013-05-24 00:56:00,58.0,52.2,30.10,ESE,113,0.0,0.0,81,0.00,,,0.00,WUHU216HW,2013-05-24 05:56:00,
2013-05-24 01:01:00,58.0,52.2,30.10,ESE,113,0.0,0.0,81,0.00,,,0.00,WUHU216HW,2013-05-24 06:01:00,
2013-05-24 01:06:00,57.8,52.0,30.10,ESE,113,0.0,0.0,81,0.00,,,0.00,WUHU216HW,2013-05-24 06:06:00,
2013-05-24 01:11:00,57.4,51.7,30.10,SE,135,0.0,0.2,81,0.00,,,0.00,WUHU216HW,2013-05-24 06:11:00,
2013-05-24 01:16:00,57.2,51.8,30.10,SSE,158,0.4,0.7,82,0.00,,,0.00,WUHU216HW,2013-05-24 06:16:00,
2013-05-24 01:21:00,57.2,51.8,30.11,SE,135,0.0,0.7,82,0.00,,,0.00,WUHU216HW,2013-05-24 06:21:00,
2013-05-24 01:26:00,57.1,51.9,30.11,SE,135,0.0,0.2,83,0.00,,,0.00,WUHU216HW,2013-05-24 06:26:00,
2013-05-24 01:31:00,57.1,51.9,30.11,SE,135,0.0,0.2,83,0.00,,,0.00,WUHU216HW,2013-05-24 06:31:00,
2013-05-24 01:36:00,56.9,51.8,30.11,SE,135,0.0,0.2,83,0.00,,,0.00,WUHU216HW,2013-05-24 06:36:00,
2013-05-24 01:41:00,56.9,51.8,30.11,SE,135,0.0,0.0,83,0.00,,,0.00,WUHU216HW,2013-05-24 06:41:00,
2013-05-24 01:46:00,56.7,51.6,30.11,SE,135,0.0,0.0,83,0.00,,,0.00,WUHU216HW,2013-05-24 06:46:00,
2013-05-24 01:51:00,56.5,51.4,30.12,SE,135,0.0,0.0,83,0.00,,,0.00,WUHU216HW,2013-05-24 06:51:00,
2013-05-24 01:56:00,56.3,50.9,30.12,SE,135,0.0,0.0,82,0.00,,,0.00,WUHU216HW,2013-05-24 06:56:00,
2013-05-24 02:01:00,56.2,50.7,30.12,SE,135,0.0,0.0,82,0.00,,,0.00,WUHU216HW,2013-05-24 07:01:00,
2013-05-24 02:06:00,56.0,50.5,30.12,SE,135,0.0,0.0,82,0.00,,,0.00,WUHU216HW,2013-05-24 07:06:00,
2013-05-24 02:11:00,55.8,50.3,30.11,ESE,113,0.0,0.0,82,0.00,,,0.00,WUHU216HW,2013-05-24 07:11:00,
2013-05-24 02:16:00,55.8,50.7,30.12,ESE,113,0.0,0.0,83,0.00,,,0.00,WUHU216HW,2013-05-24 07:16:00,
2013-05-24 02:21:00,55.8,50.7,30.12,ESE,113,0.0,0.0,83,0.00,,,0.00,WUHU216HW,2013-05-24 07:21:00,
2013-05-24 02:26:00,55.4,50.3,30.11,ESE,113,0.0,0.0,83,0.00,,,0.00,WUHU216HW,2013-05-24 07:26:00,
2013-05-24 02:31:00,55.4,50.9,30.11,East,90,0.0,0.7,85,0.00,,,0.00,WUHU216HW,2013-05-24 07:31:00,
2013-05-24 02:36:00,55.4,50.6,30.11,ESE,113,0.2,0.7,84,0.00,,,0.00,WUHU216HW,2013-05-24 07:36:00,
2013-05-24 02:41:00,55.4,50.6,30.12,ENE,68,0.0,0.4,84,0.00,,,0.00,WUHU216HW,2013-05-24 07:41:00,
2013-05-24 02:46:00,55.4,50.9,30.12,SE,135,0.2,1.3,85,0.00,,,0.00,WUHU216HW,2013-05-24 07:46:00,
2013-05-24 02:51:00,55.4,51.3,30.12,SE,135,0.0,1.3,86,0.00,,,0.00,WUHU216HW,2013-05-24 07:51:00,
2013-05-24 02:56:00,55.4,51.3,30.12,SE,132,0.7,1.1,86,0.00,,,0.00,WUHU216HW,2013-05-24 07:56:00,
2013-05-24 03:01:00,55.4,51.3,30.12,ESE,113,2.2,2.2,86,0.00,,,0.00,WUHU216HW,2013-05-24 08:01:00,
2013-05-24 03:06:00,55.4,51.3,30.12,SE,135,0.9,2.2,86,0.00,,,0.00,WUHU216HW,2013-05-24 08:06:00,
2013-05-24 03:11:00,55.4,51.3,30.12,SE,135,0.7,1.8,86,0.00,,,0.00,WUHU216HW,2013-05-24 08:11:00,
2013-05-24 03:16:00,55.4,51.3,30.12,ESE,122,0.6,1.8,86,0.00,,,0.00,WUHU216HW,2013-05-24 08:16:00,
2013-05-24 03:21:00,55.4,51.3,30.12,ESE,116,1.1,2.0,86,0.00,,,0.00,WUHU216HW,2013-05-24 08:21:00,
2013-05-24 03:26:00,55.4,51.3,30.12,WSW,248,0.7,2.0,86,0.00,,,0.00,WUHU216HW,2013-05-24 08:26:00,
2013-05-24 03:31:00,55.4,51.3,30.12,SE,135,0.4,1.1,86,0.00,,,0.00,WUHU216HW,2013-05-24 08:31:00,
2013-05-24 03:36:00,55.4,51.3,30.13,ESE,113,1.1,1.8,86,0.00,,,0.00,WUHU216HW,2013-05-24 08:36:00,
2013-05-24 03:41:00,55.4,51.3,30.13,SE,135,0.7,1.8,86,0.00,,,0.00,WUHU216HW,2013-05-24 08:41:00,
2013-05-24 03:46:00,55.4,51.3,30.13,SSE,158,0.6,1.3,86,0.00,,,0.00,WUHU216HW,2013-05-24 08:46:00,
2013-05-24 03:51:00,55.4,51.3,30.13,SSW,203,0.4,0.9,86,0.00,,,0.00,WUHU216HW,2013-05-24 08:51:00,
2013-05-24 03:56:00,55.4,50.9,30.13,East,90,1.8,1.8,85,0.00,,,0.00,WUHU216HW,2013-05-24 08:56:00,
2013-05-24 04:01:00,55.4,50.9,30.13,ESE,116,0.8,1.8,85,0.00,,,0.00,WUHU216HW,2013-05-24 09:01:00,
2013-05-24 04:06:00,55.3,50.8,30.13,WNW,293,0.9,1.1,85,0.00,,,0.00,WUHU216HW,2013-05-24 09:06:00,
2013-05-24 04:11:00,55.3,51.1,30.13,SE,130,0.4,1.1,86,0.00,,,0.00,WUHU216HW,2013-05-24 09:11:00,
2013-05-24 04:16:00,55.1,51.0,30.14,ESE,113,0.6,1.1,86,0.00,,,0.00,WUHU216HW,2013-05-24 09:16:00,
2013-05-24 04:22:00,55.1,51.0,30.14,ESE,113,0.9,1.1,86,0.00,,,0.00,WUHU216HW,2013-05-24 09:22:00,
2013-05-24 04:27:00,55.1,51.0,30.14,SSE,158,2.5,2.5,86,0.00,,,0.00,WUHU216HW,2013-05-24 09:27:00,
2013-05-24 04:32:00,54.9,50.4,30.13,SE,135,0.4,2.5,85,0.00,,,0.00,WUHU216HW,2013-05-24 09:32:00,
2013-05-24 04:37:00,54.7,50.6,30.13,SSE,148,0.4,0.9,86,0.00,,,0.00,WUHU216HW,2013-05-24 09:37:00,
2013-05-24 04:42:00,54.5,50.4,30.13,SE,137,1.1,2.0,86,0.00,,,0.00,WUHU216HW,2013-05-24 09:42:00,
2013-05-24 04:47:00,54.4,50.2,30.14,ENE,68,1.3,2.0,86,0.00,,,0.00,WUHU216HW,2013-05-24 09:47:00,
2013-05-24 04:52:00,54.4,50.2,30.14,ESE,113,0.7,1.3,86,0.00,,,0.00,WUHU216HW,2013-05-24 09:52:00,
2013-05-24 04:57:00,54.4,50.2,30.15,ESE,113,0.0,0.7,86,0.00,,,0.00,WUHU216HW,2013-05-24 09:57:00,
2013-05-24 05:02:00,54.2,49.8,30.15,SE,135,0.0,0.4,85,0.00,,,0.00,WUHU216HW,2013-05-24 10:02:00,
2013-05-24 05:07:00,54.2,49.8,30.15,ESE,113,0.9,0.9,85,0.00,,,0.00,WUHU216HW,2013-05-24 10:07:00,
2013-05-24 05:12:00,54.0,49.9,30.15,ESE,113,0.0,0.9,86,0.00,,,0.00,WUHU216HW,2013-05-24 10:12:00,
2013-05-24 05:17:00,54.0,49.6,30.15,ESE,113,0.0,0.2,85,0.00,,,0.00,WUHU216HW,2013-05-24 10:17:00,
2013-05-24 05:22:00,53.8,49.4,30.15,SSE,158,0.0,0.0,85,0.00,,,0.00,WUHU216HW,2013-05-24 10:22:00,
2013-05-24 05:27:00,53.6,49.2,30.15,SSE,158,0.0,0.0,85,0.00,,,0.00,WUHU216HW,2013-05-24 10:27:00,
2013-05-24 05:32:00,53.6,49.2,30.16,SSE,158,0.0,0.0,85,0.00,,,0.00,WUHU216HW,2013-05-24 10:32:00,
2013-05-24 05:37:00,53.3,48.9,30.16,SSE,158,0.0,0.0,85,0.00,,,0.00,WUHU216HW,2013-05-24 10:37:00,
2013-05-24 05:42:00,53.3,49.1,30.16,SSE,158,0.0,0.0,86,0.00,,,0.00,WUHU216HW,2013-05-24 10:42:00,
2013-05-24 05:47:00,53.1,49.0,30.16,SSE,158,0.0,0.0,86,0.00,,,0.00,WUHU216HW,2013-05-24 10:47:00,
2013-05-24 05:52:00,53.1,49.0,30.17,SSE,158,0.0,0.0,86,0.00,,,0.00,WUHU216HW,2013-05-24 10:52:00,
2013-05-24 05:57:00,52.9,48.8,30.17,SSE,158,0.0,0.0,86,0.00,,,0.00,WUHU216HW,2013-05-24 10:57:00,
2013-05-24 06:02:00,52.7,48.6,30.17,SSE,158,0.0,0.0,86,0.00,,,0.00,WUHU216HW,2013-05-24 11:02:00,
2013-05-24 06:07:00,52.6,48.4,30.17,SSE,158,0.0,0.0,86,0.00,,,0.00,WUHU216HW,2013-05-24 11:07:00,
2013-05-24 06:12:00,52.6,48.4,30.17,SSE,158,0.0,0.0,86,0.00,,,0.00,WUHU216HW,2013-05-24 11:12:00,
2013-05-24 06:17:00,52.4,48.2,30.17,SSE,158,0.0,0.0,86,0.00,,,0.00,WUHU216HW,2013-05-24 11:17:00,
2013-05-24 06:22:00,52.4,48.2,30.17,ESE,113,0.4,0.4,86,0.00,,,0.00,WUHU216HW,2013-05-24 11:22:00,
2013-05-24 06:27:00,52.6,48.4,30.17,ESE,113,0.0,0.4,86,0.00,,,0.00,WUHU216HW,2013-05-24 11:27:00,
2013-05-24 06:32:00,52.6,48.8,30.17,SSE,158,0.0,0.2,87,0.00,,,0.00,WUHU216HW,2013-05-24 11:32:00,
2013-05-24 06:37:00,52.7,49.0,30.18,ESE,121,0.9,1.1,87,0.00,,,0.00,WUHU216HW,2013-05-24 11:37:00,
2013-05-24 06:42:00,52.9,49.2,30.18,East,100,0.4,1.1,87,0.00,,,0.00,WUHU216HW,2013-05-24 11:42:00,
2013-05-24 06:47:00,53.1,49.3,30.18,SSE,158,0.4,1.3,87,0.00,,,0.00,WUHU216HW,2013-05-24 11:47:00,
2013-05-24 06:52:00,53.3,49.5,30.19,SE,135,1.1,1.3,87,0.00,,,0.00,WUHU216HW,2013-05-24 11:52:00,
2013-05-24 06:57:00,53.6,49.5,30.18,ESE,113,0.6,1.1,86,0.00,,,0.00,WUHU216HW,2013-05-24 11:57:00,
2013-05-24 07:02:00,53.8,49.7,30.19,SSE,160,0.8,1.6,86,0.00,,,0.00,WUHU216HW,2013-05-24 12:02:00,
2013-05-24 07:07:00,54.0,49.9,30.19,SSE,158,1.1,1.6,86,0.00,,,0.00,WUHU216HW,2013-05-24 12:07:00,
2013-05-24 07:12:00,54.0,49.9,30.19,SSE,158,1.8,1.8,86,0.00,,,0.00,WUHU216HW,2013-05-24 12:12:00,
2013-05-24 07:17:00,54.4,50.2,30.19,SE,135,1.8,2.5,86,0.00,,,0.00,WUHU216HW,2013-05-24 12:17:00,
2013-05-24 07:22:00,54.5,50.4,30.19,SSE,158,0.4,2.5,86,0.00,,,0.00,WUHU216HW,2013-05-24 12:22:00,
2013-05-24 07:27:00,54.7,50.6,30.19,South,180,0.4,2.2,86,0.00,,,0.00,WUHU216HW,2013-05-24 12:27:00,
2013-05-24 07:32:00,54.9,50.8,30.19,ENE,68,1.8,2.2,86,0.00,,,0.00,WUHU216HW,2013-05-24 12:32:00,
2013-05-24 07:37:00,55.1,51.0,30.19,SE,135,1.6,1.8,86,0.00,,,0.00,WUHU216HW,2013-05-24 12:37:00,
2013-05-24 07:42:00,55.4,50.9,30.19,ESE,116,1.5,2.5,85,0.00,,,0.00,WUHU216HW,2013-05-24 12:42:00,
2013-05-24 07:47:00,55.8,51.3,30.20,SE,135,1.6,2.5,85,0.00,,,0.00,WUHU216HW,2013-05-24 12:47:00,
2013-05-24 07:52:00,56.3,51.2,30.20,SE,135,1.1,2.7,83,0.00,,,0.00,WUHU216HW,2013-05-24 12:52:00,
2013-05-24 07:57:00,56.5,51.4,30.20,ESE,113,1.6,3.8,83,0.00,,,0.00,WUHU216HW,2013-05-24 12:57:00,
2013-05-24 08:02:00,57.1,51.6,30.20,SE,135,1.8,3.8,82,0.00,,,0.00,WUHU216HW,2013-05-24 13:02:00,
2013-05-24 08:07:00,57.6,52.1,30.20,ESE,113,0.8,2.0,82,0.00,,,0.00,WUHU216HW,2013-05-24 13:07:00,
2013-05-24 08:12:00,58.1,52.4,30.20,ESE,113,1.6,2.2,81,0.00,,,0.00,WUHU216HW,2013-05-24 13:12:00,
2013-05-24 08:17:00,58.7,52.2,30.19,SW,214,1.2,4.7,79,0.00,,,0.00,WUHU216HW,2013-05-24 13:17:00,
2013-05-24 08:22:00,59.2,52.4,30.19,SE,129,2.7,4.7,78,0.00,,,0.00,WUHU216HW,2013-05-24 13:22:00,
2013-05-24 08:27:00,59.8,50.8,30.19,SSE,158,3.5,4.3,72,0.00,,,0.00,WUHU216HW,2013-05-24 13:27:00,
2013-05-24 08:32:00,59.9,50.6,30.19,SSE,158,2.2,6.0,71,0.00,,,0.00,WUHU216HW,2013-05-24 13:32:00,
2013-05-24 08:37:00,60.1,50.0,30.20,ESE,113,3.1,6.0,69,0.00,,,0.00,WUHU216HW,2013-05-24 13:37:00,
2013-05-24 08:42:00,60.3,49.8,30.19,SSW,203,1.3,3.1,68,0.00,,,0.00,WUHU216HW,2013-05-24 13:42:00,
2013-05-24 08:47:00,60.7,50.5,30.19,ESE,122,3.1,4.7,69,0.00,,,0.00,WUHU216HW,2013-05-24 13:47:00,
2013-05-24 08:52:00,61.0,50.9,30.19,SE,135,3.1,4.7,69,0.00,,,0.00,WUHU216HW,2013-05-24 13:52:00,
2013-05-24 08:57:00,61.4,50.8,30.20,SE,138,1.7,4.0,68,0.00,,,0.00,WUHU216HW,2013-05-24 13:57:00,
2013-05-24 09:02:00,61.7,51.5,30.20,SW,215,0.8,4.0,69,0.00,,,0.00,WUHU216HW,2013-05-24 14:02:00,
2013-05-24 09:07:00,62.3,50.3,30.19,South,180,2.0,4.7,65,0.00,,,0.00,WUHU216HW,2013-05-24 14:07:00,
2013-05-24 09:12:00,62.8,51.3,30.19,South,188,1.9,4.7,66,0.00,,,0.00,WUHU216HW,2013-05-24 14:12:00,
2013-05-24 09:17:00,63.2,51.6,30.20,NNE,23,2.5,2.9,66,0.00,,,0.00,WUHU216HW,2013-05-24 14:17:00,
2013-05-24 09:22:00,63.7,52.1,30.20,SE,138,2.8,3.4,66,0.00,,,0.00,WUHU216HW,2013-05-24 14:22:00,
2013-05-24 09:27:00,63.9,50.6,30.20,WSW,248,1.1,3.4,62,0.00,,,0.00,WUHU216HW,2013-05-24 14:27:00,
2013-05-24 09:32:00,64.4,51.1,30.20,East,90,3.6,3.6,62,0.00,,,0.00,WUHU216HW,2013-05-24 14:32:00,
2013-05-24 09:37:00,64.6,50.9,30.20,ESE,113,1.1,3.6,61,0.00,,,0.00,WUHU216HW,2013-05-24 14:37:00,
2013-05-24 09:42:00,64.6,50.9,30.21,SE,135,2.9,2.9,61,0.00,,,0.00,WUHU216HW,2013-05-24 14:42:00,
2013-05-24 09:47:00,64.6,50.9,30.20,SE,125,2.3,3.6,61,0.00,,,0.00,WUHU216HW,2013-05-24 14:47:00,
2013-05-24 09:52:00,65.2,51.8,30.21,WSW,240,1.0,3.6,62,0.00,,,0.00,WUHU216HW,2013-05-24 14:52:00,
2013-05-24 09:57:00,65.5,51.8,30.21,SE,135,1.8,2.9,61,0.00,,,0.00,WUHU216HW,2013-05-24 14:57:00,
2013-05-24 10:02:00,66.1,51.8,30.22,East,90,1.8,2.5,60,0.00,,,0.00,WUHU216HW,2013-05-24 15:02:00,
2013-05-24 10:07:00,66.2,52.0,30.22,SSE,158,1.1,1.8,60,0.00,,,0.00,WUHU216HW,2013-05-24 15:07:00,
2013-05-24 10:12:00,66.4,50.2,30.22,SSE,158,1.5,1.8,56,0.00,,,0.00,WUHU216HW,2013-05-24 15:12:00,
2013-05-24 10:17:00,66.6,52.4,30.21,ESE,113,2.0,4.9,60,0.00,,,0.00,WUHU216HW,2013-05-24 15:17:00,
2013-05-24 10:22:00,67.3,53.5,30.21,ESE,113,1.8,4.9,61,0.00,,,0.00,WUHU216HW,2013-05-24 15:22:00,
2013-05-24 10:27:00,67.3,50.0,30.21,SW,215,2.3,4.0,54,0.00,,,0.00,WUHU216HW,2013-05-24 15:27:00,
2013-05-24 10:32:00,67.3,52.0,30.21,SE,131,2.2,4.0,58,0.00,,,0.00,WUHU216HW,2013-05-24 15:32:00,
2013-05-24 10:37:00,67.7,52.4,30.21,ESE,113,4.0,4.0,58,0.00,,,0.00,WUHU216HW,2013-05-24 15:37:00,
2013-05-24 10:42:00,67.7,51.4,30.21,NE,45,2.5,4.0,56,0.00,,,0.00,WUHU216HW,2013-05-24 15:42:00,
2013-05-24 10:47:00,67.7,51.4,30.21,SE,135,1.3,3.1,56,0.00,,,0.00,WUHU216HW,2013-05-24 15:47:00,
2013-05-24 10:52:00,67.7,49.4,30.21,SSE,158,1.8,4.0,52,0.00,,,0.00,WUHU216HW,2013-05-24 15:52:00,
2013-05-24 10:57:00,67.5,52.2,30.21,SE,135,3.4,4.0,58,0.00,,,0.00,WUHU216HW,2013-05-24 15:57:00,
2013-05-24 11:02:00,68.0,52.2,30.21,ESE,113,2.5,3.4,57,0.00,,,0.00,WUHU216HW,2013-05-24 16:02:00,
2013-05-24 11:07:00,68.4,50.0,30.20,SE,127,3.7,4.9,52,0.00,,,0.00,WUHU216HW,2013-05-24 16:07:00,
2013-05-24 11:12:00,68.4,52.6,30.21,SW,225,1.8,4.9,57,0.00,,,0.00,WUHU216HW,2013-05-24 16:12:00,
2013-05-24 11:17:00,68.6,52.8,30.20,ESE,115,1.6,2.7,57,0.00,,,0.00,WUHU216HW,2013-05-24 16:17:00,
2013-05-24 11:22:00,69.1,53.7,30.20,SE,135,1.3,2.7,58,0.00,,,0.00,WUHU216HW,2013-05-24 16:22:00,
2013-05-24 11:27:00,69.5,52.6,30.20,SE,129,2.8,4.0,55,0.00,,,0.00,WUHU216HW,2013-05-24 16:27:00,
2013-05-24 11:32:00,69.7,53.7,30.20,SSW,203,2.2,4.0,57,0.00,,,0.00,WUHU216HW,2013-05-24 16:32:00,
2013-05-24 11:37:00,69.8,53.5,30.20,SE,125,1.5,2.2,56,0.00,,,0.00,WUHU216HW,2013-05-24 16:37:00,
2013-05-24 11:42:00,69.8,52.4,30.19,East,90,3.6,3.6,54,0.00,,,0.00,WUHU216HW,2013-05-24 16:42:00,
2013-05-24 11:47:00,69.7,51.2,30.19,ESE,113,2.0,3.6,52,0.00,,,0.00,WUHU216HW,2013-05-24 16:47:00,
2013-05-24 11:52:00,69.7,52.3,30.19,SE,135,1.6,3.4,54,0.00,,,0.00,WUHU216HW,2013-05-24 16:52:00,
2013-05-24 11:57:00,69.8,51.0,30.19,North,0,1.7,3.4,51,0.00,,,0.00,WUHU216HW,2013-05-24 16:57:00,
2013-05-24 12:02:00,69.7,52.3,30.19,SE,127,2.6,3.4,54,0.00,,,0.00,WUHU216HW,2013-05-24 17:02:00,
2013-05-24 12:07:00,70.2,53.7,30.19,SSE,150,1.0,3.4,56,0.00,,,0.00,WUHU216HW,2013-05-24 17:07:00,
2013-05-24 12:12:00,70.6,54.1,30.19,SE,135,2.1,3.1,56,0.00,,,0.00,WUHU216HW,2013-05-24 17:12:00,
2013-05-24 12:17:00,70.9,53.9,30.19,NNE,23,2.2,3.1,55,0.00,,,0.00,WUHU216HW,2013-05-24 17:17:00,
2013-05-24 12:22:00,70.9,54.4,30.19,WSW,254,1.4,3.1,56,0.00,,,0.00,WUHU216HW,2013-05-24 17:22:00,
2013-05-24 12:27:00,70.7,51.8,30.19,South,178,2.0,6.5,51,0.00,,,0.00,WUHU216HW,2013-05-24 17:27:00,
2013-05-24 12:32:00,70.6,53.1,30.19,South,189,2.6,6.5,54,0.00,,,0.00,WUHU216HW,2013-05-24 17:32:00,
2013-05-24 12:37:00,70.9,52.4,30.19,SSE,158,3.8,4.5,52,0.00,,,0.00,WUHU216HW,2013-05-24 17:37:00,
2013-05-24 12:42:00,70.9,53.4,30.18,ESE,117,2.2,3.8,54,0.00,,,0.00,WUHU216HW,2013-05-24 17:42:00,
2013-05-24 12:47:00,71.3,54.2,30.18,ESE,113,3.8,3.8,55,0.00,,,0.00,WUHU216HW,2013-05-24 17:47:00,
2013-05-24 12:52:00,71.5,54.4,30.18,SSW,203,3.1,4.0,55,0.00,,,0.00,WUHU216HW,2013-05-24 17:52:00,
2013-05-24 12:57:00,71.6,54.0,30.18,South,180,3.1,4.0,54,0.00,,,0.00,WUHU216HW,2013-05-24 17:57:00,
2013-05-24 13:02:00,71.8,53.2,30.18,East,92,2.7,3.1,52,0.00,,,0.00,WUHU216HW,2013-05-24 18:02:00,
2013-05-24 13:07:00,71.6,53.6,30.17,SSW,203,3.1,3.4,53,0.00,,,0.00,WUHU216HW,2013-05-24 18:07:00,
2013-05-24 13:12:00,71.8,54.2,30.17,NE,45,2.2,3.4,54,0.00,,,0.00,WUHU216HW,2013-05-24 18:12:00,
2013-05-24 13:17:00,72.0,54.4,30.17,SE,135,1.1,2.2,54,0.00,,,0.00,WUHU216HW,2013-05-24 18:17:00,
2013-05-24 13:22:00,72.2,53.0,30.17,SE,126,1.5,3.4,51,0.00,,,0.00,WUHU216HW,2013-05-24 18:22:00,
2013-05-24 13:27:00,72.0,52.8,30.17,SSW,197,2.9,3.4,51,0.00,,,0.00,WUHU216HW,2013-05-24 18:27:00,
2013-05-24 13:32:00,72.2,53.0,30.17,SSE,147,0.8,3.8,51,0.00,,,0.00,WUHU216HW,2013-05-24 18:32:00,
2013-05-24 13:37:00,72.4,54.7,30.17,SSW,203,1.0,3.8,54,0.00,,,0.00,WUHU216HW,2013-05-24 18:37:00,
2013-05-24 13:42:00,72.7,55.0,30.16,SE,142,1.8,2.5,54,0.00,,,0.00,WUHU216HW,2013-05-24 18:42:00,
2013-05-24 13:47:00,72.7,54.0,30.16,SSE,150,1.5,3.1,52,0.00,,,0.00,WUHU216HW,2013-05-24 18:47:00,
2013-05-24 13:52:00,73.1,54.8,30.16,WSW,243,1.5,3.1,53,0.00,,,0.00,WUHU216HW,2013-05-24 18:52:00,
2013-05-24 13:57:00,73.4,55.6,30.16,SSW,203,2.0,2.5,54,0.00,,,0.00,WUHU216HW,2013-05-24 18:57:00,
2013-05-24 14:02:00,73.4,53.6,30.16,ESE,107,3.3,4.7,50,0.00,,,0.00,WUHU216HW,2013-05-24 19:02:00,
2013-05-24 14:07:00,73.3,53.5,30.16,SSE,158,4.7,4.7,50,0.00,,,0.00,WUHU216HW,2013-05-24 19:07:00,
2013-05-24 14:12:00,73.4,54.6,30.16,East,90,2.5,4.7,52,0.00,,,0.00,WUHU216HW,2013-05-24 19:12:00,
2013-05-24 14:17:00,73.8,56.0,30.15,South,180,1.1,3.6,54,0.00,,,0.00,WUHU216HW,2013-05-24 19:17:00,
2013-05-24 14:22:00,73.8,52.2,30.15,ENE,68,3.6,4.3,47,0.00,,,0.00,WUHU216HW,2013-05-24 19:22:00,
2013-05-24 14:27:00,73.6,53.2,30.15,SSE,166,2.3,4.3,49,0.00,,,0.00,WUHU216HW,2013-05-24 19:27:00,
2013-05-24 14:32:00,73.8,52.2,30.15,South,173,1.8,4.5,47,0.00,,,0.00,WUHU216HW,2013-05-24 19:32:00,
2013-05-24 14:37:00,73.8,52.2,30.15,South,180,1.8,4.5,47,0.00,,,0.00,WUHU216HW,2013-05-24 19:37:00,
2013-05-24 14:42:00,73.6,53.2,30.15,SE,135,2.0,3.1,49,0.00,,,0.00,WUHU216HW,2013-05-24 19:42:00,
2013-05-24 14:47:00,73.8,54.0,30.15,SE,128,3.6,4.7,50,0.00,,,0.00,WUHU216HW,2013-05-24 19:47:00,
2013-05-24 14:52:00,74.3,53.9,30.14,South,184,1.4,4.7,49,0.00,,,0.00,WUHU216HW,2013-05-24 19:52:00,
2013-05-24 14:57:00,74.3,53.9,30.14,SE,134,1.9,4.0,49,0.00,,,0.00,WUHU216HW,2013-05-24 19:57:00,
2013-05-24 15:02:00,74.5,54.7,30.14,SSE,158,2.7,3.1,50,0.00,,,0.00,WUHU216HW,2013-05-24 20:02:00,
2013-05-24 15:07:00,74.5,52.3,30.14,SE,125,3.3,4.7,46,0.00,,,0.00,WUHU216HW,2013-05-24 20:07:00,
2013-05-24 15:12:00,74.9,53.8,30.13,South,171,1.5,4.7,48,0.00,,,0.00,WUHU216HW,2013-05-24 20:12:00,
2013-05-24 15:17:00,75.2,54.8,30.13,SE,135,1.8,4.0,49,0.00,,,0.00,WUHU216HW,2013-05-24 20:17:00,
2013-05-24 15:22:00,75.4,53.2,30.14,SE,135,2.5,4.0,46,0.00,,,0.00,WUHU216HW,2013-05-24 20:22:00,
2013-05-24 15:27:00,75.4,54.4,30.14,South,176,2.3,4.0,48,0.00,,,0.00,WUHU216HW,2013-05-24 20:27:00,
2013-05-24 15:32:00,75.4,53.7,30.14,ESE,123,4.1,6.9,47,0.00,,,0.00,WUHU216HW,2013-05-24 20:32:00,
2013-05-24 15:37:00,75.2,54.2,30.14,SSE,158,2.9,6.9,48,0.00,,,0.00,WUHU216HW,2013-05-24 20:37:00,
2013-05-24 15:42:00,75.6,53.9,30.14,SSE,158,0.9,2.9,47,0.00,,,0.00,WUHU216HW,2013-05-24 20:42:00,
2013-05-24 15:47:00,75.6,55.2,30.14,ESE,113,0.7,2.0,49,0.00,,,0.00,WUHU216HW,2013-05-24 20:47:00,
2013-05-24 15:52:00,75.6,53.9,30.13,SE,135,2.5,2.5,47,0.00,,,0.00,WUHU216HW,2013-05-24 20:52:00,
2013-05-24 15:57:00,76.0,54.9,30.13,ESE,113,3.4,3.4,48,0.00,,,0.00,WUHU216HW,2013-05-24 20:57:00,
2013-05-24 16:02:00,76.0,54.9,30.12,SE,135,0.8,3.4,48,0.00,,,0.00,WUHU216HW,2013-05-24 21:02:00,
2013-05-24 16:07:00,76.0,54.9,30.12,South,180,3.1,3.6,48,0.00,,,0.00,WUHU216HW,2013-05-24 21:07:00,
2013-05-24 16:12:00,76.0,54.9,30.12,South,191,1.2,3.6,48,0.00,,,0.00,WUHU216HW,2013-05-24 21:12:00,
2013-05-24 16:18:00,76.0,53.6,30.12,SE,135,2.0,2.5,46,0.00,,,0.00,WUHU216HW,2013-05-24 21:18:00,
2013-05-24 16:23:00,76.0,54.3,30.12,ESE,123,1.1,2.7,47,0.00,,,0.00,WUHU216HW,2013-05-24 21:23:00,
2013-05-24 16:28:00,76.1,55.0,30.12,WSW,248,1.1,2.7,48,0.00,,,0.00,WUHU216HW,2013-05-24 21:28:00,
2013-05-24 16:33:00,76.1,53.2,30.12,SE,135,1.8,3.4,45,0.00,,,0.00,WUHU216HW,2013-05-24 21:33:00,
2013-05-24 16:38:00,76.0,54.9,30.12,SE,135,1.8,3.4,48,0.00,,,0.00,WUHU216HW,2013-05-24 21:38:00,
2013-05-24 16:43:00,76.1,55.0,30.12,ESE,113,0.9,2.5,48,0.00,,,0.00,WUHU216HW,2013-05-24 21:43:00,
2013-05-24 16:51:00,76.3,54.0,30.12,East,97,1.5,2.5,46,0.00,,,0.00,WUHU216HW,2013-05-24 21:51:00,
2013-05-24 16:56:00,76.3,54.5,30.11,SE,135,1.5,2.5,47,0.00,,,0.00,WUHU216HW,2013-05-24 21:56:00,
2013-05-24 17:01:00,76.1,54.5,30.11,SSW,203,1.8,2.5,47,0.00,,,0.00,WUHU216HW,2013-05-24 22:01:00,
2013-05-24 17:06:00,76.0,53.0,30.11,SSE,168,1.2,3.6,45,0.00,,,0.00,WUHU216HW,2013-05-24 22:06:00,
2013-05-24 17:11:00,76.0,52.4,30.11,SE,135,1.1,3.6,44,0.00,,,0.00,WUHU216HW,2013-05-24 22:11:00,
2013-05-24 17:16:00,76.3,52.1,30.11,ESE,120,2.3,3.4,43,0.00,,,0.00,WUHU216HW,2013-05-24 22:16:00,
2013-05-24 17:21:00,76.1,54.5,30.10,South,180,1.1,3.4,47,0.00,,,0.00,WUHU216HW,2013-05-24 22:21:00,
2013-05-24 17:26:00,76.0,54.3,30.10,ESE,113,2.9,2.9,47,0.00,,,0.00,WUHU216HW,2013-05-24 22:26:00,
2013-05-24 17:31:00,76.0,53.6,30.10,SSE,158,2.0,2.9,46,0.00,,,0.00,WUHU216HW,2013-05-24 22:31:00,
2013-05-24 17:36:00,75.6,51.5,30.09,SW,227,2.5,2.7,43,0.00,,,0.00,WUHU216HW,2013-05-24 22:36:00,
2013-05-24 17:41:00,75.4,52.6,30.09,ESE,113,3.1,3.1,45,0.00,,,0.00,WUHU216HW,2013-05-24 22:41:00,
2013-05-24 17:46:00,75.2,53.0,30.09,ESE,121,1.5,3.1,46,0.00,,,0.00,WUHU216HW,2013-05-24 22:46:00,
2013-05-24 17:51:00,75.2,53.7,30.09,SE,142,1.9,2.7,47,0.00,,,0.00,WUHU216HW,2013-05-24 22:51:00,
2013-05-24 17:56:00,75.1,52.8,30.09,SE,135,1.8,3.6,46,0.00,,,0.00,WUHU216HW,2013-05-24 22:56:00,
2013-05-24 18:01:00,75.1,53.5,30.09,ESE,120,1.3,3.6,47,0.00,,,0.00,WUHU216HW,2013-05-24 23:01:00,
2013-05-24 18:06:00,74.9,53.3,30.09,SE,135,1.6,2.7,47,0.00,,,0.00,WUHU216HW,2013-05-24 23:06:00,
2013-05-24 18:11:00,74.7,51.8,30.09,SE,127,1.5,2.0,45,0.00,,,0.00,WUHU216HW,2013-05-24 23:11:00,
2013-05-24 18:16:00,74.5,52.3,30.09,SE,135,2.5,2.5,46,0.00,,,0.00,WUHU216HW,2013-05-24 23:16:00,
2013-05-24 18:21:00,74.3,52.8,30.09,SE,135,2.5,3.4,47,0.00,,,0.00,WUHU216HW,2013-05-24 23:21:00,
2013-05-24 18:26:00,74.3,52.8,30.09,ENE,68,2.2,3.4,47,0.00,,,0.00,WUHU216HW,2013-05-24 23:26:00,
2013-05-24 18:31:00,74.3,52.8,30.08,SSW,203,0.9,2.9,47,0.00,,,0.00,WUHU216HW,2013-05-24 23:31:00,
2013-05-24 18:36:00,74.2,53.2,30.08,SE,135,1.3,2.2,48,0.00,,,0.00,WUHU216HW,2013-05-24 23:36:00,
2013-05-24 18:41:00,74.2,53.7,30.08,SW,225,1.1,2.5,49,0.00,,,0.00,WUHU216HW,2013-05-24 23:41:00,
2013-05-24 18:46:00,74.0,53.0,30.08,ESE,117,1.1,2.5,48,0.00,,,0.00,WUHU216HW,2013-05-24 23:46:00,
2013-05-24 18:51:00,73.8,53.4,30.09,SSE,158,0.4,1.8,49,0.00,,,0.00,WUHU216HW,2013-05-24 23:51:00,
2013-05-24 18:56:00,73.6,52.7,30.09,SE,135,1.8,1.8,48,0.00,,,0.00,WUHU216HW,2013-05-24 23:56:00,
2013-05-24 19:01:00,73.4,53.0,30.09,SSE,158,1.1,1.8,49,0.00,,,0.00,WUHU216HW,2013-05-25 00:01:00,
2013-05-24 19:06:00,73.3,52.9,30.09,SSE,161,0.6,2.0,49,0.00,,,0.00,WUHU216HW,2013-05-25 00:06:00,
2013-05-24 19:11:00,73.1,53.3,30.09,SE,135,0.2,2.0,50,0.00,,,0.00,WUHU216HW,2013-05-25 00:11:00,
2013-05-24 19:16:00,72.9,53.2,30.09,SSW,203,0.7,0.9,50,0.00,,,0.00,WUHU216HW,2013-05-25 00:16:00,
2013-05-24 19:21:00,72.7,53.5,30.09,ESE,113,1.3,1.3,51,0.00,,,0.00,WUHU216HW,2013-05-25 00:21:00,
2013-05-24 19:26:00,72.4,53.2,30.09,ESE,113,1.5,1.8,51,0.00,,,0.00,WUHU216HW,2013-05-25 00:26:00,
2013-05-24 19:31:00,72.2,53.0,30.09,SSE,158,0.9,2.5,51,0.00,,,0.00,WUHU216HW,2013-05-25 00:31:00,
2013-05-24 19:36:00,71.3,52.2,30.09,SE,135,0.2,2.5,51,0.00,,,0.00,WUHU216HW,2013-05-25 00:36:00,
2013-05-24 19:41:00,70.9,51.8,30.09,South,178,0.6,2.0,51,0.00,,,0.00,WUHU216HW,2013-05-25 00:41:00,
2013-05-24 19:46:00,70.2,51.2,30.09,ESE,110,0.6,1.1,51,0.00,,,0.00,WUHU216HW,2013-05-25 00:46:00,
2013-05-24 19:51:00,69.5,50.6,30.09,East,100,1.0,1.6,51,0.00,,,0.00,WUHU216HW,2013-05-25 00:51:00,
2013-05-24 19:56:00,69.1,50.2,30.09,ESE,113,1.3,1.6,51,0.00,,,0.00,WUHU216HW,2013-05-25 00:56:00,
2013-05-24 20:01:00,68.8,50.0,30.09,SE,130,0.9,1.3,51,0.00,,,0.00,WUHU216HW,2013-05-25 01:01:00,
2013-05-24 20:06:00,68.6,50.2,30.09,South,180,0.6,1.1,52,0.00,,,0.00,WUHU216HW,2013-05-25 01:06:00,
2013-05-24 20:11:00,68.0,49.8,30.09,SSE,158,0.7,1.3,52,0.00,,,0.00,WUHU216HW,2013-05-25 01:11:00,
2013-05-24 20:16:00,67.9,49.6,30.08,SSE,158,0.2,1.3,52,0.00,,,0.00,WUHU216HW,2013-05-25 01:16:00,
2013-05-24 20:21:00,67.5,49.8,30.09,ESE,113,0.4,0.4,53,0.00,,,0.00,WUHU216HW,2013-05-25 01:21:00,
2013-05-24 20:26:00,67.1,50.0,30.09,SE,135,0.0,1.3,54,0.00,,,0.00,WUHU216HW,2013-05-25 01:26:00,
2013-05-24 20:31:00,66.6,49.4,30.09,SE,135,0.0,1.3,54,0.00,,,0.00,WUHU216HW,2013-05-25 01:31:00,
2013-05-24 20:36:00,66.4,49.2,30.09,ENE,68,0.2,0.9,54,0.00,,,0.00,WUHU216HW,2013-05-25 01:36:00,
2013-05-24 20:41:00,66.1,49.4,30.09,ENE,68,0.0,0.9,55,0.00,,,0.00,WUHU216HW,2013-05-25 01:41:00,
2013-05-24 20:46:00,65.7,49.1,30.09,ESE,113,0.4,1.1,55,0.00,,,0.00,WUHU216HW,2013-05-25 01:46:00,
2013-05-24 20:51:00,65.3,49.1,30.09,East,90,0.3,1.1,56,0.00,,,0.00,WUHU216HW,2013-05-25 01:51:00,
2013-05-24 20:56:00,65.2,49.5,30.09,East,90,0.2,0.7,57,0.00,,,0.00,WUHU216HW,2013-05-25 01:56:00,
2013-05-24 21:01:00,64.8,49.2,30.09,ESE,113,0.2,0.7,57,0.00,,,0.00,WUHU216HW,2013-05-25 02:01:00,
2013-05-24 21:06:00,64.6,49.0,30.09,SE,135,0.0,0.4,57,0.00,,,0.00,WUHU216HW,2013-05-25 02:06:00,
2013-05-24 21:11:00,64.4,49.2,30.09,SE,135,0.4,0.4,58,0.00,,,0.00,WUHU216HW,2013-05-25 02:11:00,
2013-05-24 21:16:00,64.3,49.1,30.10,SE,135,0.2,1.6,58,0.00,,,0.00,WUHU216HW,2013-05-25 02:16:00,
2013-05-24 21:21:00,64.1,49.4,30.10,ESE,113,0.4,1.6,59,0.00,,,0.00,WUHU216HW,2013-05-25 02:21:00,
2013-05-24 21:26:00,63.7,49.1,30.10,ESE,113,0.3,0.7,59,0.00,,,0.00,WUHU216HW,2013-05-25 02:26:00,
2013-05-24 21:31:00,63.5,49.4,30.10,ESE,113,0.3,0.7,60,0.00,,,0.00,WUHU216HW,2013-05-25 02:31:00,
2013-05-24 21:36:00,63.4,49.2,30.10,SE,135,0.9,0.9,60,0.00,,,0.00,WUHU216HW,2013-05-25 02:36:00,
2013-05-24 21:41:00,63.2,49.5,30.10,SE,135,1.1,1.8,61,0.00,,,0.00,WUHU216HW,2013-05-25 02:41:00,
2013-05-24 21:46:00,63.0,49.3,30.10,SE,135,0.4,1.8,61,0.00,,,0.00,WUHU216HW,2013-05-25 02:46:00,
2013-05-24 21:51:00,62.8,49.1,30.10,East,90,0.9,1.8,61,0.00,,,0.00,WUHU216HW,2013-05-25 02:51:00,
2013-05-24 21:56:00,62.8,49.1,30.10,SE,135,1.1,1.1,61,0.00,,,0.00,WUHU216HW,2013-05-25 02:56:00,
2013-05-24 22:01:00,62.6,49.1,30.11,ESE,113,1.1,1.3,61,0.00,,,0.00,WUHU216HW,2013-05-25 03:01:00,
2013-05-24 22:06:00,62.6,49.1,30.10,SE,135,0.6,1.3,61,0.00,,,0.00,WUHU216HW,2013-05-25 03:06:00,
2013-05-24 22:11:00,62.5,49.2,30.10,East,81,1.7,2.7,62,0.00,,,0.00,WUHU216HW,2013-05-25 03:11:00,
2013-05-24 22:16:00,62.3,49.2,30.11,ESE,113,0.6,2.7,62,0.00,,,0.00,WUHU216HW,2013-05-25 03:16:00,
2013-05-24 22:21:00,62.3,49.2,30.11,ESE,113,1.3,1.3,62,0.00,,,0.00,WUHU216HW,2013-05-25 03:21:00,
2013-05-24 22:26:00,62.3,49.2,30.11,ESE,106,1.6,2.5,62,0.00,,,0.00,WUHU216HW,2013-05-25 03:26:00,
2013-05-24 22:31:00,62.1,49.0,30.11,SE,135,0.8,2.5,62,0.00,,,0.00,WUHU216HW,2013-05-25 03:31:00,
2013-05-24 22:36:00,61.9,48.8,30.12,ESE,113,1.1,1.8,62,0.00,,,0.00,WUHU216HW,2013-05-25 03:36:00,
2013-05-24 22:41:00,61.7,48.6,30.12,ESE,113,0.7,1.1,62,0.00,,,0.00,WUHU216HW,2013-05-25 03:41:00,
2013-05-24 22:46:00,61.6,48.4,30.12,ESE,113,0.2,1.3,62,0.00,,,0.00,WUHU216HW,2013-05-25 03:46:00,
2013-05-24 22:51:00,61.6,48.4,30.12,South,180,2.0,2.0,62,0.00,,,0.00,WUHU216HW,2013-05-25 03:51:00,
2013-05-24 22:56:00,61.4,48.3,30.12,South,186,0.8,2.0,62,0.00,,,0.00,WUHU216HW,2013-05-25 03:56:00,
2013-05-24 23:01:00,61.4,48.3,30.12,NNW,329,2.0,4.3,62,0.00,,,0.00,WUHU216HW,2013-05-25 04:01:00,
2013-05-24 23:06:00,61.4,48.3,30.12,WSW,248,0.7,4.3,62,0.00,,,0.00,WUHU216HW,2013-05-25 04:06:00,
2013-05-24 23:11:00,61.2,48.2,30.12,SSE,158,1.1,3.4,62,0.00,,,0.00,WUHU216HW,2013-05-25 04:11:00,
2013-05-24 23:16:00,61.2,48.2,30.12,ESE,113,0.9,1.6,62,0.00,,,0.00,WUHU216HW,2013-05-25 04:16:00,
2013-05-24 23:21:00,61.0,48.0,30.12,East,90,0.7,1.8,62,0.00,,,0.00,WUHU216HW,2013-05-25 04:21:00,
2013-05-24 23:26:00,60.8,48.3,30.12,ENE,73,1.0,1.8,63,0.00,,,0.00,WUHU216HW,2013-05-25 04:26:00,
2013-05-24 23:31:00,60.8,48.3,30.12,SSE,158,2.0,2.0,63,0.00,,,0.00,WUHU216HW,2013-05-25 04:31:00,
2013-05-24 23:36:00,60.8,48.3,30.11,SE,135,0.4,2.0,63,0.00,,,0.00,WUHU216HW,2013-05-25 04:36:00,
2013-05-24 23:41:00,60.7,48.1,30.11,SSE,147,0.8,1.3,63,0.00,,,0.00,WUHU216HW,2013-05-25 04:41:00,
2013-05-24 23:46:00,60.5,47.9,30.11,SE,135,0.4,1.1,63,0.00,,,0.00,WUHU216HW,2013-05-25 04:46:00,
2013-05-24 23:51:00,60.5,47.9,30.11,South,180,0.9,1.3,63,0.00,,,0.00,WUHU216HW,2013-05-25 04:51:00,
2013-05-24 23:56:00,60.3,47.7,30.11,SE,135,0.2,1.3,63,0.00,,,0.00,WUHU216HW,2013-05-25 04:56:00,